Lake Jackson, Texas
Current Conditions -  °F | °C
As of 4:53 AM on Sunday 21 Dec 2014 (Local Time) from KLBX Reporting Station
Overcast Overcast  
Wind Chill: 50°   Ceiling: 1200
Heat Index: 50°   Visibility: 10mi
Dew Point: 49°   Wind: 6mph
Humidity: 96%   Direction: 20°NNE
Pressure: 30.1"   Gusts: NA
Location:  29.03°N, 95.45°W
Report Text: KLBX 211053Z AUTO 02005KT 10SM OVC012 10/09 A3010 RMK AO2 SLP193 T01000094
Loading
Personal Weather Stations






























Interactive Weather Map New forecast layout! Learn more

10-Day Weather Forecast

Advertisements
Track Severe Weather on mobile